CW9663 Weather Reports


Display with metric or nautical units.
time (UTC)temp
F
wind
direction
speed
MPH
gust
MPH
rain 1hr
in
rain 24hr
in
rain mn
in
humidity
%
barometer
mb
20171017204338 68 234 11.0 15.0 0.00 0.00 0.00 37 1022.0
20171017203833 68 236 11.0 16.0 0.00 0.00 0.00 37 1022.0
20171017203350 68 209 11.0 17.0 0.00 0.00 0.00 38 1022.0
20171017202840 68 225 10.0 17.0 0.00 0.00 0.00 37 1022.1
20171017202341 68 228 13.0 17.0 0.00 0.00 0.00 37 1022.1
20171017201851 68 250 9.0 15.0 0.00 0.00 0.00 37 1022.2
20171017201332 68 232 10.0 18.0 0.00 0.00 0.00 37 1022.1
20171017200846 68 247 11.0 18.0 0.00 0.00 0.00 37 1022.3
20171017200337 68 218 10.0 16.0 0.00 0.00 0.00 37 1022.3
20171017195850 69 251 8.0 15.0 0.00 0.00 0.00 40 1022.4
20171017195352 68 245 10.0 18.0 0.00 0.00 0.00 39 1022.3
20171017194844 68 233 10.0 18.0 0.00 0.00 0.00 38 1022.3
20171017194344 68 264 12.0 18.0 0.00 0.00 0.00 37 1022.3
20171017193839 68 225 14.0 19.0 0.00 0.00 0.00 38 1022.3
20171017193334 68 219 9.0 19.0 0.00 0.00 0.00 39 1022.4
20171017192849 68 224 9.0 17.0 0.00 0.00 0.00 38 1022.4
20171017192350 68 223 11.0 21.0 0.00 0.00 0.00 38 1022.4
20171017191838 68 215 15.0 21.0 0.00 0.00 0.00 38 1022.4
20171017191336 68 219 11.0 17.0 0.00 0.00 0.00 39 1022.6
20171017190833 68 265 11.0 21.0 0.00 0.00 0.00 39 1022.6
20171017190347 67 240 12.0 21.0 0.00 0.00 0.00 40 1022.8
20171017185841 68 244 14.0 19.0 0.00 0.00 0.00 38 1022.9
20171017185343 67 248 9.0 19.0 0.00 0.00 0.00 39 1022.9
20171017184852 68 234 14.0 19.0 0.00 0.00 0.00 38 1023.0
20171017184331 68 215 12.0 17.0 0.00 0.00 0.00 39 1023.0
20171017183831 68 252 9.0 17.0 0.00 0.00 0.00 42 1023.0
20171017183343 68 235 12.0 17.0 0.00 0.00 0.00 41 1022.9
20171017182834 67 218 10.0 17.0 0.00 0.00 0.00 41 1023.0
20171017182334 67 224 12.0 17.0 0.00 0.00 0.00 41 1023.1
20171017181840 67 248 13.0 19.0 0.00 0.00 0.00 39 1023.1
20171017181339 67 221 16.0 19.0 0.00 0.00 0.00 40 1023.1
20171017180834 67 241 13.0 17.0 0.00 0.00 0.00 41 1023.2
20171017180353 67 262 14.0 18.0 0.00 0.00 0.00 40 1023.1
20171017175851 67 229 12.0 24.0 0.00 0.00 0.00 42 1023.1
20171017175331 66 240 12.0 24.0 0.00 0.00 0.00 41 1023.2
20171017174842 66 241 9.0 20.0 0.00 0.00 0.00 42 1023.3
20171017174340 66 235 14.0 22.0 0.00 0.00 0.00 41 1023.6
20171017173837 66 218 15.0 22.0 0.00 0.00 0.00 41 1023.6
20171017173352 67 213 13.0 18.0 0.00 0.00 0.00 40 1023.7
20171017172843 66 244 12.0 18.0 0.00 0.00 0.00 42 1023.7
20171017172344 66 232 13.0 18.0 0.00 0.00 0.00 41 1023.7
20171017171852 66 235 12.0 22.0 0.00 0.00 0.00 42 1023.7
20171017171346 65 245 13.0 22.0 0.00 0.00 0.00 42 1023.8
20171017170839 65 243 12.0 22.0 0.00 0.00 0.00 43 1024.0
20171017170351 65 243 16.0 22.0 0.00 0.00 0.00 42 1024.1
20171017165844 65 254 15.0 21.0 0.00 0.00 0.00 42 1024.1
20171017165347 65 246 12.0 21.0 0.00 0.00 0.00 44 1024.1
20171017164832 65 229 11.0 20.0 0.00 0.00 0.00 43 1024.1
20171017164337 64 224 9.0 20.0 0.00 0.00 0.00 44 1024.1
20171017163833 64 255 14.0 20.0 0.00 0.00 0.00 43 1024.2
20171017163350 65 257 16.0 19.0 0.00 0.00 0.00 43 1024.3
20171017162844 64 263 8.0 18.0 0.00 0.00 0.00 45 1024.1
20171017162345 64 212 10.0 18.0 0.00 0.00 0.00 45 1024.2
20171017161836 64 223 12.0 18.0 0.00 0.00 0.00 45 1024.4
20171017161337 64 252 10.0 17.0 0.00 0.00 0.00 46 1024.4
20171017160851 63 252 12.0 20.0 0.00 0.00 0.00 46 1024.4
20171017160347 62 240 16.0 23.0 0.00 0.00 0.00 47 1024.6
20171017155837 62 221 14.0 23.0 0.00 0.00 0.00 47 1024.7
20171017155343 62 238 15.0 20.0 0.00 0.00 0.00 46 1024.6
20171017154851 62 244 12.0 21.0 0.00 0.00 0.00 48 1024.6
20171017154351 62 230 15.0 21.0 0.00 0.00 0.00 47 1024.7
20171017153846 62 216 13.0 20.0 0.00 0.00 0.00 47 1024.8
20171017153339 62 225 12.0 20.0 0.00 0.00 0.00 49 1024.8
20171017152833 61 240 13.0 20.0 0.00 0.00 0.00 49 1024.8
20171017152334 61 233 10.0 19.0 0.00 0.00 0.00 51 1024.9
20171017151839 60 264 11.0 18.0 0.00 0.00 0.00 51 1025.1
20171017151340 60 252 12.0 18.0 0.00 0.00 0.00 51 1025.1
20171017150835 60 265 10.0 18.0 0.00 0.00 0.00 52 1025.1
20171017150349 59 242 15.0 18.0 0.00 0.00 0.00 52 1025.0
20171017145841 59 250 8.0 16.0 0.00 0.00 0.00 53 1025.1
20171017145341 59 230 9.0 15.0 0.00 0.00 0.00 54 1025.2
20171017144849 58 223 11.0 15.0 0.00 0.00 0.00 55 1025.2
20171017144331 58 225 11.0 15.0 0.00 0.00 0.00 54 1025.2
20171017143843 57 236 10.0 16.0 0.00 0.00 0.00 56 1025.2
20171017143339 57 227 12.0 19.0 0.00 0.00 0.00 57 1025.1
20171017142833 57 238 11.0 19.0 0.00 0.00 0.00 57 1025.2
20171017142335 56 242 12.0 17.0 0.00 0.00 0.00 58 1025.1
20171017141851 56 234 12.0 17.0 0.00 0.00 0.00 59 1025.1
20171017141332 55 208 12.0 17.0 0.00 0.00 0.00 59 1025.1
20171017140848 55 244 13.0 17.0 0.00 0.00 0.00 60 1025.2
20171017140342 54 258 12.0 17.0 0.00 0.00 0.00 62 1025.2
20171017135834 54 234 11.0 14.0 0.00 0.00 0.00 64 1025.2
20171017135335 53 239 12.0 14.0 0.00 0.00 0.00 63 1025.3
20171017134840 53 243 10.0 14.0 0.00 0.00 0.00 64 1025.3
20171017134339 52 243 13.0 14.0 0.00 0.00 0.00 66 1025.2
20171017133834 52 221 8.0 16.0 0.00 0.00 0.00 67 1025.2
20171017133343 52 217 10.0 16.0 0.00 0.00 0.00 67 1025.3
20171017132835 51 219 10.0 15.0 0.00 0.00 0.00 67 1025.2
20171017132340 51 223 9.0 15.0 0.00 0.00 0.00 69 1025.2
20171017131849 51 235 10.0 14.0 0.00 0.00 0.00 69 1025.0
20171017131350 50 236 10.0 17.0 0.00 0.00 0.00 70 1025.0
20171017130841 50 237 10.0 17.0 0.00 0.00 0.00 71 1024.9
20171017130336 49 225 9.0 14.0 0.00 0.00 0.00 72 1024.9
20171017125849 49 234 8.0 14.0 0.00 0.00 0.00 73 1025.0
20171017125350 48 204 7.0 13.0 0.00 0.00 0.00 74 1025.2
20171017124832 48 227 9.0 13.0 0.00 0.00 0.00 75 1025.0
20171017124333 48 229 7.0 10.0 0.00 0.00 0.00 75 1025.2
20171017123846 47 221 6.0 10.0 0.00 0.00 0.00 75 1025.3
20171017123337 47 221 8.0 12.0 0.00 0.00 0.00 76 1025.4
20171017122852 47 233 6.0 12.0 0.00 0.00 0.00 76 1025.2
20171017122332 47 215 7.0 9.0 0.00 0.00 0.00 78 1025.1
20171017121838 46 207 5.0 10.0 0.00 0.00 0.00 78 1025.0
20171017121339 46 223 5.0 11.0 0.00 0.00 0.00 79 1025.0
20171017120835 46 218 8.0 11.0 0.00 0.00 0.00 78 1025.0
20171017120349 46 209 4.0 11.0 0.00 0.00 0.00 78 1025.0
20171017115841 46 215 6.0 12.0 0.00 0.00 0.00 78 1025.0
20171017115342 46 207 8.0 12.0 0.00 0.00 0.00 78 1025.0
20171017114834 46 222 5.0 10.0 0.00 0.00 0.00 78 1025.0
20171017114336 46 215 6.0 11.0 0.00 0.00 0.00 78 1025.0
20171017113831 46 223 5.0 11.0 0.00 0.00 0.00 78 1025.0
20171017113346 46 222 6.0 13.0 0.00 0.00 0.00 78 1025.0
20171017112841 46 202 8.0 13.0 0.00 0.00 0.00 78 1025.1
20171017112341 46 229 5.0 13.0 0.00 0.00 0.00 78 1025.1
20171017111845 46 235 7.0 11.0 0.00 0.00 0.00 78 1025.1
20171017111345 46 240 7.0 10.0 0.00 0.00 0.00 78 1025.1
20171017110839 46 228 5.0 10.0 0.00 0.00 0.00 79 1025.1
20171017110332 46 211 8.0 11.0 0.00 0.00 0.00 79 1025.0
20171017105849 46 213 7.0 11.0 0.00 0.00 0.00 79 1025.0
20171017105328 46 207 6.0 12.0 0.00 0.00 0.00 80 1025.0
20171017104836 46 221 6.0 12.0 0.00 0.00 0.00 79 1025.1
20171017104340 46 229 6.0 10.0 0.00 0.00 0.00 80 1025.1
20171017103835 46 220 6.0 10.0 0.00 0.00 0.00 80 1025.1
20171017103343 46 229 5.0 10.0 0.00 0.00 0.00 80 1025.1
20171017102837 46 219 4.0 9.0 0.00 0.00 0.00 81 1025.2
20171017102338 46 210 4.0 9.0 0.00 0.00 0.00 81 1025.1
20171017101842 45 213 5.0 9.0 0.00 0.00 0.00 82 1025.2
20171017101347 44 211 4.0 9.0 0.00 0.00 0.00 84 1025.2
20171017100842 44 217 4.0 7.0 0.00 0.00 0.00 85 1025.2
20171017100345 44 209 4.0 7.0 0.00 0.00 0.00 85 1025.1
20171017095846 44 203 5.0 7.0 0.00 0.00 0.00 85 1024.9
20171017095347 43 219 4.0 6.0 0.00 0.00 0.00 85 1024.9
20171017094850 43 209 4.0 9.0 0.00 0.00 0.00 86 1025.0
20171017094332 43 207 4.0 9.0 0.00 0.00 0.00 86 1024.9
20171017093851 43 203 5.0 6.0 0.00 0.00 0.00 86 1024.8
20171017093348 43 211 5.0 6.0 0.00 0.00 0.00 85 1024.8
20171017092843 44 209 4.0 6.0 0.00 0.00 0.00 85 1024.7
20171017092344 44 211 5.0 6.0 0.00 0.00 0.00 84 1024.7
20171017091834 45 207 5.0 6.0 0.00 0.00 0.00 83 1024.7
20171017091335 45 226 4.0 8.0 0.00 0.00 0.00 82 1024.6
20171017090832 45 225 5.0 8.0 0.00 0.00 0.00 81 1024.6
20171017090348 45 220 5.0 7.0 0.00 0.00 0.00 82 1024.5
20171017085841 45 225 5.0 10.0 0.00 0.00 0.00 82 1024.5
20171017085344 45 218 5.0 10.0 0.00 0.00 0.00 83 1024.4
20171017084851 45 219 4.0 9.0 0.00 0.03 0.00 84 1024.4
20171017084333 44 221 3.0 7.0 0.00 0.03 0.00 84 1024.3
20171017083849 44 215 4.0 7.0 0.00 0.03 0.00 85 1024.2
20171017083345 44 217 5.0 6.0 0.00 0.03 0.00 84 1024.3
20171017082842 44 212 5.0 6.0 0.00 0.03 0.00 85 1024.2
20171017082343 44 213 4.0 7.0 0.00 0.03 0.00 85 1024.2
20171017081835 44 223 5.0 7.0 0.00 0.03 0.00 86 1024.2
20171017081341 44 207 4.0 6.0 0.00 0.03 0.00 86 1024.2
20171017080836 44 219 4.0 7.0 0.00 0.03 0.00 86 1024.1
20171017080350 43 212 5.0 7.0 0.00 0.03 0.00 87 1024.1
20171017075844 43 207 5.0 8.0 0.00 0.03 0.00 86 1024.2
20171017075344 43 198 4.0 8.0 0.00 0.03 0.00 86 1024.2
20171017074833 43 230 4.0 7.0 0.00 0.04 0.00 86 1024.2
20171017074337 44 217 4.0 7.0 0.00 0.04 0.00 86 1024.2
20171017073831 44 211 3.0 6.0 0.00 0.04 0.00 86 1024.2
20171017073348 44 211 5.0 6.0 0.00 0.04 0.00 85 1024.3
20171017072843 44 200 4.0 7.0 0.00 0.04 0.00 85 1024.3
20171017072346 44 205 4.0 7.0 0.00 0.04 0.00 86 1024.3
20171017071832 44 209 4.0 7.0 0.00 0.04 0.00 86 1024.1
20171017071333 44 209 4.0 7.0 0.00 0.04 0.00 86 1024.2
20171017070848 44 214 5.0 9.0 0.00 0.04 0.00 86 1024.2
20171017070336 43 216 6.0 9.0 0.00 0.04 0.00 86 1024.2
20171017065832 43 217 4.0 6.0 0.00 0.04 0.00 86 1024.1
20171017065332 43 217 4.0 5.0 0.00 0.04 0.00 86 1024.2
20171017064837 43 219 4.0 5.0 0.00 0.04 0.00 86 1024.2
20171017064337 43 193 3.0 4.0 0.00 0.04 0.00 87 1024.1
20171017063831 43 192 4.0 5.0 0.00 0.04 0.00 87 1024.2
20171017063339 43 192 4.0 5.0 0.00 0.04 0.00 87 1024.2
20171017062833 43 192 5.0 5.0 0.00 0.04 0.00 87 1024.0
20171017062333 43 192 5.0 5.0 0.00 0.04 0.00 87 1024.1
20171017061841 43 192 4.0 5.0 0.00 0.04 0.00 87 1024.0
20171017061340 43 192 4.0 6.0 0.00 0.04 0.00 87 1023.9
20171017060835 43 192 4.0 6.0 0.00 0.04 0.00 86 1024.0
20171017060347 43 192 4.0 5.0 0.00 0.04 0.00 86 1024.1
20171017055838 43 192 4.0 6.0 0.00 0.04 0.00 86 1024.1
20171017055338 44 192 4.0 6.0 0.00 0.04 0.00 86 1024.1
20171017054840 44 192 4.0 6.0 0.00 0.04 0.00 86 1024.1
20171017054342 43 192 4.0 6.0 0.00 0.04 0.00 86 1024.1
20171017053833 44 192 5.0 6.0 0.00 0.04 0.00 86 1024.0
20171017053343 44 192 4.0 7.0 0.00 0.04 0.00 85 1024.0
20171017052837 44 192 6.0 7.0 0.00 0.04 0.00 85 1024.0
20171017052338 44 194 5.0 5.0 0.00 0.04 0.00 85 1024.0
20171017051842 44 194 4.0 5.0 0.00 0.04 0.00 85 1024.0
20171017051342 44 194 4.0 5.0 0.00 0.04 0.00 85 1023.9
20171017050836 44 198 5.0 5.0 0.00 0.04 0.00 85 1023.9
20171017050344 44 196 4.0 5.0 0.00 0.04 0.00 85 1024.0
20171017045835 44 194 4.0 5.0 0.00 0.04 0.00 85 1023.9
20171017045334 44 194 3.0 4.0 0.00 0.04 0.00 85 1023.9
20171017044841 43 194 3.0 4.0 0.00 0.04 0.00 85 1023.9
20171017044341 43 194 3.0 4.0 0.00 0.04 0.00 85 1023.9
20171017043836 43 194 3.0 4.0 0.00 0.04 0.00 86 1023.9
20171017043345 43 194 3.0 4.0 0.00 0.04 0.00 86 1024.0
20171017042834 44 194 3.0 4.0 0.00 0.04 0.00 85 1024.0
20171017042336 43 194 0.0 3.0 0.00 0.04 0.00 86 1024.0
20171017041840 43 194 1.0 4.0 0.00 0.04 0.00 87 1023.9
20171017041341 43 194 3.0 4.0 0.00 0.04 0.00 88 1024.0
20171017040832 43 194 3.0 4.0 0.00 0.04 0.00 88 1024.0
20171017040339 43 194 3.0 5.0 0.00 0.04 0.04 88 1024.0
20171017035849 43 194 3.0 5.0 0.00 0.04 0.04 87 1024.0
20171017035350 43 236 3.0 4.0 0.00 0.04 0.04 88 1024.2
20171017034832 43 236 3.0 3.0 0.00 0.04 0.04 89 1024.3
20171017034339 42 236 1.0 2.0 0.00 0.04 0.04 89 1024.3
20171017033850 43 236 1.0 2.0 0.00 0.04 0.04 88 1024.3
20171017033347 43 236 1.0 2.0 0.00 0.04 0.04 88 1024.3
20171017032841 43 236 1.0 3.0 0.00 0.04 0.04 88 1024.3
20171017032341 43 236 2.0 3.0 0.00 0.04 0.04 89 1024.4
20171017031848 43 236 3.0 3.0 0.00 0.04 0.04 88 1024.5
20171017031349 43 236 2.0 3.0 0.00 0.04 0.04 87 1024.5
20171017030842 44 236 3.0 3.0 0.00 0.04 0.04 86 1024.5
20171017030338 44 236 2.0 3.0 0.00 0.04 0.04 85 1024.3
20171017025833 44 236 2.0 3.0 0.00 0.04 0.04 85 1024.2
20171017025332 44 236 2.0 3.0 0.00 0.04 0.04 85 1024.2
20171017024834 44 248 2.0 3.0 0.00 0.04 0.04 85 1024.3
20171017024332 44 248 2.0 3.0 0.00 0.04 0.04 85 1024.3
20171017023846 45 248 2.0 3.0 0.00 0.04 0.04 85 1024.3
20171017023337 44 248 2.0 3.0 0.00 0.04 0.04 86 1024.4
20171017022851 44 248 2.0 2.0 0.00 0.04 0.04 88 1024.4
20171017022330 44 248 2.0 2.0 0.00 0.04 0.04 89 1024.2
20171017021839 43 248 1.0 2.0 0.00 0.04 0.04 89 1024.1
20171017021340 44 248 1.0 3.0 0.00 0.04 0.04 88 1023.9
20171017020835 44 248 2.0 3.0 0.00 0.04 0.04 88 1024.0
20171017020349 44 248 2.0 3.0 0.00 0.04 0.04 88 1024.0
20171017015843 44 248 1.0 2.0 0.00 0.04 0.04 86 1024.1
20171017015346 44 248 1.0 3.0 0.00 0.04 0.04 88 1024.1
20171017014832 43 248 2.0 3.0 0.00 0.04 0.04 90 1024.0
20171017014333 44 248 2.0 2.0 0.00 0.04 0.04 90 1024.0
20171017013845 44 248 2.0 3.0 0.00 0.04 0.04 90 1024.0
20171017013336 44 248 1.0 3.0 0.00 0.04 0.04 90 1024.0
20171017012851 44 248 1.0 3.0 0.00 0.04 0.04 90 1024.0
20171017012333 44 248 2.0 3.0 0.00 0.04 0.04 89 1024.0
20171017011837 44 248 2.0 3.0 0.00 0.04 0.04 88 1024.0
20171017011342 44 258 3.0 3.0 0.00 0.04 0.04 89 1024.0
20171017010834 44 258 3.0 3.0 0.00 0.04 0.04 90 1024.0
20171017010346 44 258 2.0 2.0 0.00 0.04 0.04 91 1024.0
20171017005838 44 258 1.0 2.0 0.00 0.04 0.04 91 1024.1
20171017005338 44 258 1.0 1.0 0.00 0.04 0.04 90 1024.2
20171017004844 44 258 1.0 2.0 0.00 0.04 0.04 90 1024.2
20171017004344 44 258 1.0 2.0 0.00 0.04 0.04 90 1024.1
20171017003837 44 258 2.0 2.0 0.00 0.04 0.04 90 1024.0
20171017003342 45 258 0.0 0.0 0.00 0.04 0.04 89 1024.0
20171017002836 45 258 0.0 1.0 0.00 0.04 0.04 88 1024.0
20171017002338 45 258 0.0 1.0 0.00 0.04 0.04 87 1024.0
20171017001841 46 258 0.0 1.0 0.00 0.04 0.04 86 1024.1
20171017001343 46 258 0.0 1.0 0.00 0.04 0.04 86 1024.0
20171017000834 46 258 1.0 2.0 0.00 0.04 0.04 85 1024.1
20171017000347 47 258 1.0 2.0 0.00 0.04 0.04 81 1024.0
20171016235840 48 258 1.0 2.0 0.00 0.04 0.04 80 1024.0
20171016235339 48 258 2.0 2.0 0.00 0.04 0.04 81 1023.9
20171016234841 47 258 1.0 1.0 0.00 0.04 0.04 82 1023.8
20171016234341 47 258 0.0 0.0 0.00 0.04 0.04 84 1023.8
20171016233836 48 258 0.0 1.0 0.00 0.04 0.04 82 1023.8
20171016233352 50 258 0.0 1.0 0.00 0.04 0.04 75 1023.7
20171016232844 49 258 0.0 2.0 0.00 0.04 0.04 76 1023.7
20171016232345 49 258 1.0 2.0 0.00 0.04 0.04 76 1023.7
20171016231832 49 258 1.0 2.0 0.00 0.04 0.04 76 1023.8
20171016231346 50 258 1.0 1.0 0.00 0.04 0.04 76 1023.8
20171016230838 51 258 0.0 2.0 0.00 0.04 0.04 74 1023.8
20171016230348 52 258 0.0 2.0 0.00 0.04 0.04 68 1023.7
20171016225840 53 258 1.0 3.0 0.00 0.04 0.04 63 1023.8
20171016225341 54 258 2.0 3.0 0.00 0.04 0.04 58 1023.9
20171016224845 55 258 2.0 3.0 0.00 0.05 0.04 56 1023.8
20171016224339 56 258 1.0 3.0 0.00 0.05 0.04 54 1023.8
20171016223834 57 258 2.0 3.0 0.00 0.05 0.04 53 1023.9
20171016223346 57 258 2.0 3.0 0.00 0.05 0.04 52 1023.8
20171016222838 58 258 2.0 4.0 0.00 0.05 0.04 50 1023.9
20171016222338 58 258 2.0 5.0 0.00 0.05 0.04 50 1023.9
20171016221840 58 268 2.0 6.0 0.00 0.05 0.04 50 1023.9
20171016221339 58 273 3.0 6.0 0.00 0.05 0.04 50 1023.9
20171016220831 58 281 4.0 7.0 0.00 0.05 0.04 49 1023.9
20171016220344 58 291 4.0 7.0 0.00 0.05 0.04 47 1023.9
20171016215838 58 279 4.0 10.0 0.00 0.05 0.04 47 1023.9
20171016215339 59 282 6.0 10.0 0.00 0.05 0.04 45 1023.9
20171016214849 59 284 5.0 10.0 0.00 0.05 0.04 46 1023.9
20171016214347 60 297 6.0 12.0 0.00 0.05 0.04 44 1023.9
20171016213838 60 255 4.0 12.0 0.00 0.05 0.04 45 1023.9
20171016213352 60 285 5.0 11.0 0.00 0.05 0.04 44 1023.9
20171016212845 60 260 3.0 8.0 0.00 0.05 0.04 45 1024.0
20171016212327 60 298 3.0 8.0 0.00 0.05 0.04 44 1024.0
20171016211837 60 325 3.0 9.0 0.00 0.05 0.04 44 1024.0
20171016211337 60 277 4.0 11.0 0.00 0.05 0.04 45 1024.0
20171016210848 60 292 7.0 11.0 0.00 0.05 0.04 46 1024.0
20171016210338 59 288 4.0 9.0 0.00 0.05 0.04 47 1024.0
20171016205831 58 290 5.0 10.0 0.00 0.05 0.04 48 1024.0
20171016205333 59 304 6.0 10.0 0.00 0.05 0.04 45 1024.0
20171016204835 60 305 3.0 12.0 0.00 0.05 0.04 46 1024.1